Latest Coastal Weather Observations for Samuel Hill

IDQ60701

Issued at 1:45 pm EST Friday 25 April 2014 (issued every 10 minutes, with the page automatically refreshed every 10 minutes)

About coastal observations | Map of coastal stations | Coastal observations for QLD | Marine services | Other Formats
Station Details ID: 033308 Name: SAMUEL HILL AERO Lat: -22.74 Lon: 150.66 Height: 31.0 m
Data from the previous 72 hours. | See also: Recent months at Samuel Hill
Date/Time
EST
Temp

°C
Wind Pressure Rain
since 9am
mm
Weather Cloud Vis
km
Sea
Height
m
Swell
Dir
 
Speed
knots
Gust
knots
hPa Trend Height
m
Period
s
Dir
25/01:30pm 25.0 SE 8 12 1013.9 - 0.4 - Partly cloudy 10 - - - -
25/01:24pm 24.8 SE 8 12 1013.9 - 0.4 - Partly cloudy 10 - - - -
25/01:02pm 24.7 SE 9 14 1014.2 - 0.2 - Partly cloudy 7 - - - -
25/01:00pm 24.9 SE 9 14 1014.2 - 0.2 - Partly cloudy 10 - - - -
25/12:30pm 26.9 E 8 13 1014.4 - 0.2 - Partly cloudy 10 - - - -
25/12:00pm 26.4 ESE 8 14 1014.5 - 0.2 - Cloudy 10 - - - -
25/11:30am 26.1 SE 7 11 1015.1 - 0.2 - Partly cloudy 10 - - - -
25/11:00am 26.9 SE 9 13 1015.5 - 0.2 - Partly cloudy 10 - - - -
25/10:30am 25.6 SE 7 10 1015.9 - 0.0 - Partly cloudy 10 - - - -
25/10:00am 26.1 ESE 8 11 1016.2 - 0.0 - Partly cloudy 10 - - - -
25/09:30am 25.7 ESE 7 10 1016.4 - 0.0 - - 10 - - - -
25/09:00am 24.3 SE 6 10 1016.1 - 0.2 - Mostly cloudy 10 - - - -
25/08:30am 23.7 ESE 7 10 1016.4 - 0.2 - Partly cloudy 10 - - - -
25/08:00am 22.2 SSE 5 8 1016.4 - 0.2 - Partly cloudy 10 - - - -
25/07:30am 21.8 S 5 7 1016.0 - 0.2 - Partly cloudy 10 - - - -
25/07:00am 21.4 S 4 5 1015.7 - 0.2 - Partly cloudy 10 - - - -
25/06:35am 21.1 S 4 5 1015.2 - 0.2 - Partly cloudy 10 - - - -
25/06:30am 21.2 SSE 4 7 1015.1 - 0.2 - Partly cloudy 10 - - - -
25/06:01am 20.6 ENE 4 6 1014.8 - 0.2 - Partly cloudy 10 - - - -
25/06:00am 20.6 E 3 6 1014.5 - 0.2 - Cloudy 10 - - - -
25/05:30am 20.3 CALM 0 0 1014.3 - 0.2 - Partly cloudy 10 - - - -
25/05:00am 20.4 CALM 0 0 1013.9 - 0.2 - Partly cloudy 10 - - - -
25/04:30am 20.3 CALM 0 3 1013.6 - 0.2 - Partly cloudy 10 - - - -
25/04:00am 20.2 CALM 0 0 1013.7 - 0.2 - Partly cloudy 10 - - - -
25/03:30am 20.1 CALM 0 0 1013.8 - 0.2 - Cloudy 10 - - - -
25/03:00am 20.1 CALM 0 0 1013.6 - 0.2 - Mostly cloudy 10 - - - -
25/02:30am 20.1 CALM 0 0 1013.8 - 0.2 - Cloudy 10 - - - -
25/02:00am 20.1 CALM 0 0 1014.2 - 0.2 - Cloudy 10 - - - -
25/01:30am 20.2 CALM 0 0 1014.3 - 0.2 - Cloudy 10 - - - -
25/01:00am 20.1 CALM 0 0 1014.7 - 0.2 - Cloudy 10 - - - -
25/12:30am 20.0 CALM 0 0 1014.7 - 0.2 - Cloudy 10 - - - -
25/12:00am 19.6 SSE 0 0 1014.5 - 0.2 - Mostly cloudy 10 - - - -
 
Date/Time
EST
Temp

°C
Wind Pressure Rain
since 9am
mm
Weather Cloud Vis
km
Sea
Height
m
Swell
Dir
 
Speed
knots
Gust
knots
hPa Trend Height
m
Period
s
Dir
24/11:30pm 19.5 CALM 0 0 1014.9 - 0.2 - Partly cloudy 10 - - - -
24/11:00pm 19.8 SSE 3 5 1015.0 - 0.2 - - 10 - - - -
24/10:30pm 19.8 CALM 0 0 1015.3 - 0.2 - Partly cloudy 10 - - - -
24/10:00pm 20.3 CALM 0 0 1015.4 - 0.2 - Partly cloudy 10 - - - -
24/09:30pm 20.8 SE 2 4 1015.5 - 0.2 - Partly cloudy 10 - - - -
24/09:00pm 20.7 NNE 1 4 1015.3 - 0.2 - Partly cloudy 10 - - - -
24/08:30pm 20.8 CALM 0 0 1015.2 - 0.2 - Cloudy 10 - - - -
24/08:00pm 20.7 CALM 0 0 1014.8 - 0.2 - Partly cloudy 10 - - - -
24/07:30pm 20.7 CALM 0 3 1014.7 - 0.2 - Partly cloudy 10 - - - -
24/07:00pm 21.4 SW 1 4 1014.4 - 0.2 - - 10 - - - -
24/06:30pm 21.8 S 3 4 1014.1 - 0.2 - - 10 - - - -
24/06:00pm 22.2 SE 4 5 1013.7 - 0.2 - - 10 - - - -
24/05:30pm 22.8 ESE 5 7 1013.6 - 0.2 - - 10 - - - -
24/05:00pm 23.5 SE 6 9 1013.4 - 0.2 - - 10 - - - -
24/04:30pm 24.6 ESE 8 11 1013.1 - 0.2 - Partly cloudy 10 - - - -
24/04:00pm 24.2 ESE 6 10 1013.0 - 0.2 - Partly cloudy 10 - - - -
24/03:30pm 24.2 ESE 9 13 1013.0 - 0.2 - Partly cloudy 10 - - - -
24/03:00pm 25.1 ESE 8 13 1012.6 - 0.2 - Partly cloudy 10 - - - -
24/02:30pm 24.8 ESE 8 11 1012.8 - 0.2 - Partly cloudy 10 - - - -
24/02:00pm 24.4 ESE 6 10 1013.0 - 0.2 - Partly cloudy 10 - - - -
24/01:30pm 23.8 SE 7 9 1013.3 - 0.2 - Partly cloudy 10 - - - -
24/01:00pm 24.5 SE 7 9 1013.6 - 0.2 - Partly cloudy 10 - - - -
24/12:30pm 24.6 SE 6 9 1014.1 - 0.2 - Partly cloudy 10 - - - -
24/12:00pm 24.0 SSE 6 9 1014.2 - 0.2 - Mostly cloudy 10 - - - -
24/11:40am 24.2 S 7 9 1014.6 - 0.2 - Partly cloudy 10 - - - -
24/11:30am 23.7 S 6 7 1014.8 - 0.2 - Partly cloudy 10 - - - -
24/11:14am 23.4 S 6 9 1015.1 - 0.2 - Partly cloudy 10 - - - -
24/11:00am 23.1 SSE 6 9 1015.4 - 0.2 - Partly cloudy 10 - - - -
24/10:30am 22.4 S 5 7 1015.8 - 0.2 - Partly cloudy 10 - - - -
24/10:00am 21.9 S 5 8 1015.9 - 0.0 - Partly cloudy 10 - - - -
24/09:30am 21.4 S 6 9 1016.2 - 0.0 - Partly cloudy 10 - - - -
24/09:00am 21.1 E 6 9 1014.6 - 8.0 - Mostly cloudy 10 - - - -
24/08:46am 21.1 ESE 4 6 1015.5 - 8.0 - Partly cloudy 10 - - - -
24/08:30am 20.9 SSE 4 5 1015.9 - 8.0 - Partly cloudy 5 - - - -
24/08:00am 20.9 E 1 5 1016.1 - 6.8 - Partly cloudy 4 - - - -
24/07:54am 20.9 CALM 0 1 1015.9 - 6.6 - Partly cloudy 7 - - - -
24/07:30am 20.7 ENE 3 5 1015.3 - 6.4 - Partly cloudy 10 - - - -
24/07:00am 20.6 SSW 4 6 1015.4 - 6.2 - Partly cloudy 10 - - - -
24/06:30am 20.5 SSW 5 8 1015.2 - 6.2 - Partly cloudy 10 - - - -
24/06:00am 20.4 ENE 4 6 1013.7 - 6.2 - Partly cloudy 10 - - - -
24/05:30am 20.5 CALM 0 0 1014.5 - 6.2 - Partly cloudy 10 - - - -
24/05:00am 20.5 SSE 3 5 1014.0 - 6.2 - Partly cloudy 10 - - - -
24/04:30am 20.5 SE 1 5 1014.1 - 6.2 - Partly cloudy 10 - - - -
24/04:00am 20.5 S 3 5 1014.3 - 6.2 - Partly cloudy 10 - - - -
24/03:30am 20.5 S 3 5 1014.3 - 6.2 - Partly cloudy 10 - - - -
24/03:00am 20.5 CALM 0 0 1014.1 - 6.2 - Partly cloudy 10 - - - -
24/02:30am 20.6 SSE 3 4 1014.5 - 6.2 - Partly cloudy 10 - - - -
24/02:12am 20.6 SE 3 5 1014.3 - 6.2 - Partly cloudy 10 - - - -
24/02:00am 20.8 CALM 0 0 1014.9 - 6.2 - Partly cloudy 10 - - - -
24/01:46am 20.7 CALM 0 0 1015.1 - 6.2 - Partly cloudy 10 - - - -
24/01:32am 20.7 CALM 0 0 1015.0 - 6.2 - Partly cloudy 7 - - - -
24/01:30am 20.7 CALM 0 0 1015.1 - 6.2 - Partly cloudy 8 - - - -
24/01:24am 20.7 CALM 0 0 1015.1 - 6.2 - Partly cloudy 10 - - - -
24/01:11am 20.7 CALM 0 3 1015.2 - 6.2 - Partly cloudy 6 - - - -
24/01:07am 20.7 SSE 1 3 1015.3 - 6.2 - Partly cloudy 7 - - - -
24/01:00am 20.7 SSE 1 4 1015.2 - 6.2 - Partly cloudy 10 - - - -
24/12:30am 20.7 ESE 3 5 1015.5 - 6.2 - Partly cloudy 10 - - - -
24/12:00am 20.7 SSE 3 5 1016.0 - 6.2 - Cloudy 10 - - - -
 
Date/Time
EST
Temp

°C
Wind Pressure Rain
since 9am
mm
Weather Cloud Vis
km
Sea
Height
m
Swell
Dir
 
Speed
knots
Gust
knots
hPa Trend Height
m
Period
s
Dir
23/11:30pm 20.8 S 3 4 1016.5 - 6.0 - Partly cloudy 10 - - - -
23/11:00pm 21.0 SSW 3 4 1016.8 - 6.0 - Partly cloudy 10 - - - -
23/10:36pm 21.0 SE 2 5 1017.1 - 6.0 - Partly cloudy 10 - - - -
23/10:30pm 20.9 E 1 5 1017.0 - 6.0 - Partly cloudy 10 - - - -
23/10:21pm 21.1 CALM 0 0 1017.1 - 6.0 - Partly cloudy 7 - - - -
23/10:17pm 21.2 CALM 0 0 1017.2 - 6.0 - Partly cloudy 10 - - - -
23/10:00pm 21.1 CALM 0 0 1017.1 - 6.0 - Partly cloudy 10 - - - -
23/09:54pm 21.1 CALM 0 0 1017.1 - 6.0 - Partly cloudy 10 - - - -
23/09:30pm 21.1 NNE 3 4 1017.2 - 5.8 - Partly cloudy 7 - - - -
23/09:29pm 21.1 NNE 3 4 1017.2 - 5.8 - Partly cloudy 7 - - - -
23/09:28pm 21.1 NNE 3 4 1017.2 - 5.8 - Partly cloudy 8 - - - -
23/09:01pm 21.2 CALM 0 0 1017.1 - 5.6 - Partly cloudy 7 - - - -
23/09:00pm 21.2 CALM 0 0 1016.9 - 5.4 - Cloudy 8 - - - -
23/08:30pm 21.1 CALM 0 0 1016.6 - 5.4 - Partly cloudy 10 - - - -
23/08:00pm 21.0 SE 2 5 1016.5 - 5.4 - Partly cloudy 10 - - - -
23/07:30pm 21.0 SSE 3 5 1016.1 - 5.4 - Partly cloudy 10 - - - -
23/07:25pm 21.0 SSE 3 5 1016.1 - 5.4 - Partly cloudy 10 - - - -
23/07:02pm 20.9 SE 4 5 1015.9 - 5.0 - Partly cloudy 6 - - - -
23/07:00pm 20.9 SSE 4 5 1015.9 - 5.0 - Partly cloudy 10 - - - -
23/06:44pm 20.9 S 3 4 1015.9 - 5.0 - Partly cloudy 10 - - - -
23/06:30pm 20.9 SW 4 5 1015.7 - 5.0 - Partly cloudy 10 - - - -
23/06:00pm 21.0 SW 3 5 1014.8 - 5.0 - Mostly cloudy 10 - - - -
23/05:30pm 20.9 E 4 7 1014.9 - 4.6 - Partly cloudy 9 - - - -
23/05:06pm 21.2 ESE 4 6 1015.0 - 4.4 - Partly cloudy 8 - - - -
23/05:00pm 21.3 ESE 3 5 1015.2 - 4.2 - Partly cloudy 8 - - - -
23/04:30pm 21.6 CALM 0 0 1015.2 - 3.6 - Partly cloudy 6 - - - -
23/04:18pm 21.5 CALM 0 0 1015.2 - 3.2 - Partly cloudy 7 - - - -
23/04:00pm 21.5 SSE 3 5 1014.9 - 2.8 - Partly cloudy 10 - - - -
23/03:56pm 21.4 S 3 5 1014.9 - 2.8 - Partly cloudy 10 - - - -
23/03:30pm 21.6 E 1 4 1015.0 - 2.4 - Partly cloudy 6 - - - -
23/03:12pm 21.8 CALM 0 0 1015.0 - 2.0 - Partly cloudy 7 - - - -
23/03:00pm 21.7 SSE 2 4 1014.9 - 1.6 - Cloudy 10 - - - -
23/02:30pm 22.1 S 4 6 1014.6 - 1.6 - Partly cloudy 10 - - - -
23/02:02pm 21.9 S 4 7 1014.6 - 1.6 - Partly cloudy 10 - - - -
23/02:00pm 21.9 S 4 7 1014.6 - 1.6 - Partly cloudy 10 - - - -
23/01:31pm 21.4 SSE 3 5 1015.0 - 0.6 - Partly cloudy 7 - - - -
23/01:30pm 21.4 SSE 3 5 1015.0 - 0.6 - Partly cloudy 8 - - - -
23/01:00pm 21.5 SE 5 8 1015.6 - 0.4 - Partly cloudy 4 - - - -
23/12:43pm 22.3 SE 8 13 1015.6 - 0.0 - Partly cloudy 7 - - - -
23/12:30pm 23.3 SE 8 12 1015.7 - 0.0 - Partly cloudy 10 - - - -
23/12:00pm 23.7 S 5 8 1015.7 - 0.0 - Cloudy 10 - - - -
23/11:30am 22.9 SE 3 6 1016.5 - 0.0 - Partly cloudy 10 - - - -
23/11:00am 23.0 ESE 3 6 1016.6 - 0.0 - Cloudy 10 - - - -
23/10:30am 22.8 SE 5 8 1017.0 - 0.0 - Partly cloudy 10 - - - -
23/10:00am 22.6 E 4 5 1017.2 - 0.0 - Partly cloudy 10 - - - -
23/09:49am 22.4 E 6 10 1017.2 - 0.0 - Partly cloudy 10 - - - -
23/09:30am 22.3 SE 4 10 1017.4 - 0.0 - Partly cloudy 5 - - - -
23/09:27am 22.6 SSE 3 5 1017.6 - 0.0 - Partly cloudy 7 - - - -
23/09:00am 22.1 S 4 7 1017.1 - 0.6 - Cloudy 10 - - - -
23/08:43am 22.0 SSE 2 5 1017.2 - 0.6 - Partly cloudy 10 - - - -
23/08:30am 21.8 SSE 4 5 1017.0 - 0.4 - Partly cloudy 7 - - - -
23/08:28am 21.8 SSE 4 5 1017.0 - 0.4 - Partly cloudy 7 - - - -
23/08:00am 21.8 S 4 5 1017.0 - 0.2 - Partly cloudy 10 - - - -
23/07:30am 21.6 S 4 7 1016.8 - 0.0 - Partly cloudy 10 - - - -
23/07:00am 21.6 E 2 5 1016.5 - 0.0 - Partly cloudy 10 - - - -
23/06:30am 21.3 SE 4 6 1016.2 - 0.0 - Partly cloudy 10 - - - -
23/06:00am 21.4 CALM 0 0 1016.3 - 0.0 - Mostly cloudy 10 - - - -
23/05:30am 21.6 SSW 5 7 1016.6 - 0.0 - Partly cloudy 10 - - - -
23/05:00am 21.5 S 5 8 1015.7 - 0.0 - Partly cloudy 10 - - - -
23/04:30am 21.0 SSE 4 5 1015.6 - 0.0 - Partly cloudy 10 - - - -
23/04:00am 20.9 ESE 1 4 1016.4 - 0.0 - Partly cloudy 10 - - - -
23/03:30am 20.9 E 3 4 1015.9 - 0.0 - Cloudy 10 - - - -
23/03:00am 21.2 S 4 5 1016.0 - 0.0 - Cloudy 10 - - - -
23/02:30am 20.2 CALM 0 3 1015.8 - 0.0 - Partly cloudy 10 - - - -
23/02:00am 20.1 S 1 4 1016.2 - 0.0 - - 10 - - - -
23/01:30am 19.8 SE 3 5 1016.2 - 0.0 - - 10 - - - -
23/01:00am 19.7 ENE 2 4 1016.6 - 0.0 - - 10 - - - -
23/12:30am 20.1 CALM 0 0 1017.6 - 0.0 - Partly cloudy 10 - - - -
23/12:00am 20.2 WSW 1 3 1017.4 - 0.0 - Cloudy 10 - - - -
 
Date/Time
EST
Temp

°C
Wind Pressure Rain
since 9am
mm
Weather Cloud Vis
km
Sea
Height
m
Swell
Dir
 
Speed
knots
Gust
knots
hPa Trend Height
m
Period
s
Dir
22/11:30pm 20.1 CALM 0 0 1017.9 - 0.0 - Partly cloudy 10 - - - -
22/11:00pm 19.8 CALM 0 0 1017.6 - 0.0 - Partly cloudy 10 - - - -
22/10:30pm 19.6 CALM 0 0 1017.8 - 0.0 - Cloudy 10 - - - -
22/10:00pm 19.8 CALM 0 0 1018.1 - 0.0 - Partly cloudy 10 - - - -
22/09:30pm 20.4 SSE 3 4 1018.3 - 0.0 - Partly cloudy 10 - - - -
22/09:00pm 21.3 S 3 5 1018.2 - 0.0 - Mostly cloudy 10 - - - -
22/08:30pm 20.7 CALM 0 1 1018.3 - 0.0 - Partly cloudy 10 - - - -
22/08:00pm 21.1 S 2 4 1018.1 - 0.0 - Cloudy 10 - - - -
22/07:30pm 20.9 S 5 6 1017.8 - 0.0 - Cloudy 10 - - - -
22/07:00pm 21.0 S 3 5 1017.7 - 0.0 - Partly cloudy 10 - - - -
22/06:30pm 20.9 SSE 1 4 1017.3 - 0.0 - Partly cloudy 10 - - - -
22/06:00pm 21.8 SSE 4 5 1016.9 - 0.0 - - 10 - - - -
22/05:30pm 23.5 ESE 4 6 1017.1 - 0.0 - Partly cloudy 10 - - - -
22/05:00pm 24.7 ESE 7 11 1016.9 - 0.0 - - 10 - - - -
22/04:30pm 25.6 E 7 11 1016.9 - 0.0 - - 10 - - - -
22/04:00pm 25.9 ESE 9 13 1016.8 - 0.0 - - 10 - - - -
22/03:30pm 26.4 ESE 9 14 1016.6 - 0.0 - Partly cloudy 10 - - - -
22/03:00pm 26.5 E 9 15 1016.3 - 0.0 - Mostly clear 10 - - - -
22/02:30pm 26.6 ESE 9 15 1016.7 - 0.0 - Partly cloudy 10 - - - -
22/02:00pm 27.0 SE 7 11 1016.8 - 0.0 - Partly cloudy 10 - - - -

Other Formats:

Comma delimited format used in spreadsheet applications
http://www.bom.gov.au/fwo/IDQ60701/IDQ60701.94370.axf

JavaScript Object Notation format (JSON) in row-major order
http://www.bom.gov.au/fwo/IDQ60701/IDQ60701.94370.json